Time;durP1;ratioP1;P1;durP2;ratioP2;P2;SDS_P1;SDS_P2;PMS_P1;PMS_P2;Temp;Humidity;BMP_temperature;BMP_pressure;BME280_temperature;BME280_humidity;BME280_pressure;Samples;Min_cycle;Max_cycle;Signal;HPM_P1;HPM_P2
2023/01/05 00:01:25;;;;;;;1.10;0.90;;;;;;;7.17;100.00;97231.84;5061546;28;20197;-80
2023/01/05 00:03:52;;;;;;;1.43;1.10;;;;;;;7.19;100.00;97231.66;5068242;28;20226;-80
2023/01/05 00:06:21;;;;;;;1.67;1.00;;;;;;;7.14;100.00;97223.34;5070077;28;20280;-80
2023/01/05 00:08:48;;;;;;;2.33;1.20;;;;;;;7.07;100.00;97219.72;5067470;28;20293;-80
2023/01/05 00:22:33;;;;;;;1.60;1.23;;;;;;;7.00;100.00;97216.94;5101231;28;20228;-80
2023/01/05 00:25:02;;;;;;;1.77;1.30;;;;;;;7.01;100.00;97212.41;5065317;28;20255;-78
2023/01/05 00:27:30;;;;;;;3.33;1.40;;;;;;;6.98;100.00;97224.34;5070904;28;20190;-80
2023/01/05 00:29:57;;;;;;;1.93;1.30;;;;;;;6.97;100.00;97216.50;5101732;28;20259;-80
2023/01/05 00:32:25;;;;;;;2.77;1.30;;;;;;;6.98;100.00;97218.16;5069059;28;20220;-80
2023/01/05 00:34:54;;;;;;;1.70;1.20;;;;;;;6.98;100.00;97213.59;5069911;28;20227;-81
2023/01/05 00:37:25;;;;;;;0.80;0.80;;;;;;;6.96;100.00;97204.94;5066900;28;20206;-78
2023/01/05 00:39:52;;;;;;;1.53;1.00;;;;;;;6.96;100.00;97196.88;5100218;28;20201;-80
2023/01/05 00:42:19;;;;;;;1.53;1.20;;;;;;;7.01;100.00;97207.88;5103608;28;20279;-80
2023/01/05 00:44:46;;;;;;;1.00;0.90;;;;;;;7.01;100.00;97201.66;5066710;28;20206;-80
2023/01/05 00:47:14;;;;;;;1.30;1.00;;;;;;;6.99;100.00;97176.84;5055123;28;20210;-79
2023/01/05 00:49:41;;;;;;;1.00;0.90;;;;;;;7.10;100.00;97185.28;5070664;28;20198;-80
2023/01/05 00:52:09;;;;;;;1.03;0.93;;;;;;;7.13;100.00;97184.06;5071818;28;20213;-80
2023/01/05 00:54:37;;;;;;;1.43;0.90;;;;;;;7.12;100.00;97169.81;5068674;28;20229;-80
2023/01/05 00:57:06;;;;;;;0.80;0.80;;;;;;;7.32;100.00;97178.06;5068039;28;20292;-79
2023/01/05 00:59:34;;;;;;;0.97;0.70;;;;;;;7.26;100.00;97165.41;5101436;28;20213;-80
2023/01/05 01:02:02;;;;;;;1.30;0.80;;;;;;;7.27;100.00;97148.28;5100284;28;20232;-80
2023/01/05 01:04:30;;;;;;;0.80;0.80;;;;;;;7.37;100.00;97151.50;5063853;28;20220;-80
2023/01/05 01:06:58;;;;;;;0.70;0.70;;;;;;;7.37;100.00;97153.34;5068338;28;20200;-80
2023/01/05 01:09:25;;;;;;;0.70;0.70;;;;;;;7.44;99.83;97157.75;5102327;28;20233;-80
2023/01/05 01:11:53;;;;;;;1.83;0.90;;;;;;;7.64;100.00;97138.31;5076702;28;20221;-79
2023/01/05 01:14:21;;;;;;;0.80;0.60;;;;;;;7.59;100.00;97128.97;5095785;28;20202;-80
2023/01/05 01:16:49;;;;;;;1.27;0.73;;;;;;;7.58;100.00;97121.91;5068148;28;20209;-79
2023/01/05 01:19:19;;;;;;;1.47;0.83;;;;;;;7.51;100.00;97118.34;5068000;28;20229;-80
2023/01/05 01:21:47;;;;;;;0.90;0.90;;;;;;;7.56;100.00;97121.31;5068384;28;20216;-79
2023/01/05 01:24:16;;;;;;;2.50;0.90;;;;;;;7.52;100.00;97121.88;5069506;28;20225;-79
2023/01/05 01:26:43;;;;;;;0.70;0.70;;;;;;;7.44;100.00;97111.25;5070306;28;20835;-80
2023/01/05 01:29:12;;;;;;;0.70;0.70;;;;;;;7.49;100.00;97106.13;5070570;28;20237;-80
2023/01/05 01:31:39;;;;;;;1.00;0.90;;;;;;;7.52;100.00;97111.94;5073304;28;20190;-80
2023/01/05 01:34:06;;;;;;;0.70;0.70;;;;;;;7.47;100.00;97106.34;5088355;28;20233;-79
2023/01/05 01:36:34;;;;;;;3.13;1.23;;;;;;;7.46;100.00;97110.03;5068397;28;20205;-80
2023/01/05 01:39:05;;;;;;;0.80;0.80;;;;;;;7.58;100.00;97107.66;5106880;28;20207;-80
2023/01/05 01:41:35;;;;;;;0.93;0.70;;;;;;;7.59;100.00;97110.16;5067216;28;20212;-80
2023/01/05 01:44:18;;;;;;;0.73;0.73;;;;;;;7.64;100.00;97114.13;5106635;28;20220;-80
2023/01/05 01:46:47;;;;;;;1.53;1.00;;;;;;;7.62;100.00;97105.41;5083307;28;20201;-80
2023/01/05 01:49:14;;;;;;;0.70;0.70;;;;;;;7.62;100.00;97114.31;5073743;28;20202;-80
2023/01/05 01:51:45;;;;;;;1.37;0.90;;;;;;;7.59;100.00;97104.78;5067838;28;20228;-80
2023/01/05 01:54:17;;;;;;;1.03;0.90;;;;;;;7.56;100.00;97094.44;5067192;28;20209;-80
2023/01/05 01:56:50;;;;;;;1.37;0.83;;;;;;;7.57;100.00;97106.81;5063303;28;20252;-80
2023/01/05 01:59:18;;;;;;;0.73;0.73;;;;;;;7.49;100.00;97106.13;5061841;28;20201;-80
2023/01/05 02:01:48;;;;;;;1.23;0.90;;;;;;;7.52;100.00;97108.44;5067324;28;20190;-80
2023/01/05 02:04:15;;;;;;;2.10;0.97;;;;;;;7.52;100.00;97120.00;5067664;28;20221;-80
2023/01/05 02:06:42;;;;;;;1.13;0.90;;;;;;;7.52;100.00;97113.81;5067786;28;20205;-80
2023/01/05 02:09:10;;;;;;;1.30;1.10;;;;;;;7.53;100.00;97110.09;5071044;28;20210;-80
2023/01/05 02:11:46;;;;;;;1.13;0.80;;;;;;;7.60;100.00;97111.81;5065494;28;20218;-80
2023/01/05 02:14:27;;;;;;;1.30;1.00;;;;;;;7.48;100.00;97091.03;5067791;28;20205;-80
2023/01/05 02:17:07;;;;;;;1.33;1.10;;;;;;;7.48;100.00;97091.88;5093458;28;20260;-80
2023/01/05 02:20:15;;;;;;;0.90;0.90;;;;;;;7.43;100.00;97090.78;5072460;28;20233;-80
2023/01/05 02:23:19;;;;;;;0.80;0.80;;;;;;;7.39;100.00;97090.34;5059656;28;20233;-80
2023/01/05 02:26:24;;;;;;;1.40;0.90;;;;;;;7.37;100.00;97084.31;5009199;28;20270;-79
2023/01/05 02:29:14;;;;;;;1.87;0.90;;;;;;;7.37;100.00;97094.22;5066947;28;20209;-80
2023/01/05 02:31:52;;;;;;;0.97;0.90;;;;;;;7.36;100.00;97088.03;5091621;28;20198;-80
2023/01/05 02:34:23;;;;;;;1.50;0.90;;;;;;;7.37;100.00;97087.00;5072439;28;20209;-80
2023/01/05 02:36:56;;;;;;;1.00;0.80;;;;;;;7.41;100.00;97088.28;5069092;28;20209;-80
2023/01/05 02:39:31;;;;;;;0.90;0.90;;;;;;;7.33;100.00;97072.28;5069896;28;20217;-80
2023/01/05 02:42:01;;;;;;;0.90;0.90;;;;;;;7.35;100.00;97074.78;5103999;28;20209;-80
2023/01/05 02:44:30;;;;;;;1.90;0.90;;;;;;;7.34;100.00;97079.31;5062849;28;20245;-80
2023/01/05 02:47:05;;;;;;;1.07;0.97;;;;;;;7.39;100.00;97079.59;5071551;28;20386;-80
2023/01/05 02:49:36;;;;;;;0.93;0.93;;;;;;;7.49;100.00;97082.75;5093044;28;20237;-80
2023/01/05 02:52:06;;;;;;;1.00;0.90;;;;;;;7.50;100.00;97073.69;5069302;28;20277;-80
2023/01/05 02:54:37;;;;;;;1.17;1.07;;;;;;;7.50;100.00;97068.31;5069661;28;20225;-80
2023/01/05 02:57:10;;;;;;;1.07;0.97;;;;;;;7.46;100.00;97058.16;5072474;28;20205;-80
2023/01/05 02:59:42;;;;;;;0.97;0.90;;;;;;;7.45;100.00;97069.91;5064553;28;20206;-80
2023/01/05 03:02:16;;;;;;;1.20;1.10;;;;;;;7.44;100.00;97073.63;5085948;28;20221;-80
2023/01/05 03:04:50;;;;;;;1.97;0.90;;;;;;;7.46;100.00;97072.41;5064799;28;20217;-80
2023/01/05 03:07:25;;;;;;;1.03;0.93;;;;;;;7.43;100.00;97071.97;5104359;28;20193;-80
2023/01/05 03:09:54;;;;;;;1.03;0.97;;;;;;;7.37;100.00;97065.50;5099746;28;20217;-80
2023/01/05 03:15:18;;;;;;;1.43;1.00;;;;;;;7.41;100.00;97063.25;5062998;28;20268;-80
2023/01/05 03:17:50;;;;;;;3.23;1.00;;;;;;;7.39;100.00;97062.63;5102678;28;20567;-80
2023/01/05 03:20:21;;;;;;;1.13;1.03;;;;;;;7.38;100.00;97053.75;5064333;28;20300;-80
2023/01/05 03:37:05;;;;;;;0.73;0.73;;;;;;;7.49;100.00;97060.44;5077036;28;20202;-80
2023/01/05 03:39:36;;;;;;;1.30;0.80;;;;;;;7.47;100.00;97063.34;5095910;28;20240;-80
2023/01/05 03:42:07;;;;;;;0.70;0.70;;;;;;;7.49;100.00;97058.56;5069561;28;20206;-80
2023/01/05 03:44:35;;;;;;;0.90;0.90;;;;;;;7.51;100.00;97061.91;5068503;28;20323;-80
2023/01/05 03:47:03;;;;;;;1.43;0.90;;;;;;;7.49;100.00;97061.25;5070226;28;20245;-80
2023/01/05 03:49:31;;;;;;;0.80;0.80;;;;;;;7.54;100.00;97058.84;5067415;28;20327;-80
2023/01/05 03:51:59;;;;;;;0.70;0.70;;;;;;;7.50;100.00;97057.56;5067891;28;20298;-80
2023/01/05 03:54:27;;;;;;;0.83;0.83;;;;;;;7.48;100.00;97065.00;5098761;28;20205;-80
2023/01/05 03:56:54;;;;;;;1.13;0.93;;;;;;;7.45;100.00;97048.41;5086881;28;20209;-80
2023/01/05 03:59:21;;;;;;;1.13;0.90;;;;;;;7.42;100.00;97054.16;5065825;28;20202;-79
2023/01/05 04:01:49;;;;;;;3.37;0.80;;;;;;;7.38;100.00;97048.38;5069450;28;20198;-80
2023/01/05 04:04:17;;;;;;;0.80;0.73;;;;;;;7.35;100.00;97051.44;5066774;28;20245;-80
2023/01/05 04:06:46;;;;;;;0.87;0.87;;;;;;;7.35;100.00;97054.13;5075532;28;20193;-80
2023/01/05 04:09:15;;;;;;;2.00;0.70;;;;;;;7.36;100.00;97044.22;5057838;28;20214;-79
2023/01/05 04:11:43;;;;;;;1.33;0.67;;;;;;;7.41;100.00;97047.13;5068172;28;20221;-80
2023/01/05 04:14:11;;;;;;;0.80;0.80;;;;;;;7.45;100.00;97054.63;5093906;28;20216;-79
2023/01/05 04:16:38;;;;;;;0.90;0.83;;;;;;;7.42;100.00;97055.00;5081992;28;20197;-80
2023/01/05 04:19:14;;;;;;;1.60;1.10;;;;;;;7.36;100.00;97041.53;5101199;28;20229;-80
2023/01/05 04:21:43;;;;;;;1.10;1.00;;;;;;;7.33;100.00;97042.72;5065773;28;20210;-80
2023/01/05 04:24:12;;;;;;;1.17;1.00;;;;;;;7.32;100.00;97050.97;5057754;28;20218;-80
2023/01/05 04:26:42;;;;;;;1.23;0.83;;;;;;;7.26;100.00;97043.69;5063649;28;20240;-80
2023/01/05 04:29:12;;;;;;;1.10;1.00;;;;;;;7.25;100.00;97048.22;5069418;28;20206;-80
2023/01/05 04:31:40;;;;;;;0.73;0.73;;;;;;;7.22;100.00;97054.84;5067885;28;20225;-80
2023/01/05 04:34:08;;;;;;;0.80;0.80;;;;;;;7.11;100.00;97052.66;5069159;28;20327;-80
2023/01/05 04:36:36;;;;;;;0.70;0.70;;;;;;;7.09;100.00;97053.84;5067147;28;20228;-80
2023/01/05 04:39:04;;;;;;;2.93;1.60;;;;;;;7.07;100.00;97055.91;5064387;28;20197;-80
2023/01/05 04:41:39;;;;;;;0.87;0.80;;;;;;;7.11;100.00;97059.88;5067557;28;20202;-80
2023/01/05 04:44:06;;;;;;;1.03;0.80;;;;;;;7.05;100.00;97056.13;5070570;28;20217;-80
2023/01/05 04:46:33;;;;;;;0.80;0.80;;;;;;;7.15;100.00;97063.84;5064393;28;20233;-80
2023/01/05 04:49:01;;;;;;;1.00;0.83;;;;;;;7.00;100.00;97061.22;5053919;28;20202;-80
2023/01/05 04:51:29;;;;;;;1.27;0.80;;;;;;;7.04;100.00;97061.66;5063533;28;20255;-80
2023/01/05 04:53:56;;;;;;;1.67;1.00;;;;;;;7.02;100.00;97058.34;5066609;28;20209;-80
2023/01/05 04:56:24;;;;;;;1.00;0.80;;;;;;;7.04;100.00;97059.81;5056580;28;20197;-80
2023/01/05 04:58:53;;;;;;;1.10;1.00;;;;;;;6.96;100.00;97059.09;5053584;28;20292;-80
2023/01/05 05:01:20;;;;;;;0.80;0.80;;;;;;;6.95;100.00;97052.91;5069127;28;20290;-80
2023/01/05 05:03:51;;;;;;;0.87;0.87;;;;;;;6.89;100.00;97036.72;5063482;28;20281;-79
2023/01/05 05:06:21;;;;;;;2.33;1.10;;;;;;;7.03;100.00;97049.25;5073066;28;20206;-80
2023/01/05 05:08:50;;;;;;;1.03;0.80;;;;;;;6.96;100.00;97037.63;5071780;28;20201;-80
2023/01/05 05:11:17;;;;;;;1.00;0.80;;;;;;;6.95;100.00;97041.34;5075337;28;20228;-80
2023/01/05 05:13:46;;;;;;;1.40;1.00;;;;;;;6.95;100.00;97038.66;5069128;28;20199;-79
2023/01/05 05:16:15;;;;;;;0.70;0.70;;;;;;;6.84;100.00;97034.59;5103132;28;20201;-79
2023/01/05 05:18:45;;;;;;;1.00;0.90;;;;;;;6.90;100.00;97039.19;5070740;28;20218;-79
2023/01/05 05:21:17;;;;;;;0.90;0.90;;;;;;;6.93;100.00;97051.41;5071950;28;20229;-79
2023/01/05 05:23:44;;;;;;;0.90;0.90;;;;;;;6.94;100.00;97045.03;5066914;28;20221;-79
2023/01/05 05:26:11;;;;;;;1.30;1.10;;;;;;;6.92;100.00;97050.59;5074509;28;20202;-80
2023/01/05 05:28:39;;;;;;;1.50;1.23;;;;;;;7.05;100.00;97069.53;5103002;28;20201;-80
2023/01/05 05:31:06;;;;;;;2.47;1.40;;;;;;;7.04;100.00;97077.78;5069416;28;20201;-80
2023/01/05 05:33:36;;;;;;;5.53;2.93;;;;;;;7.19;100.00;97083.94;5071904;28;20209;-80
2023/01/05 05:36:04;;;;;;;5.30;2.93;;;;;;;7.11;100.00;97076.00;5084648;28;20213;-80
2023/01/05 05:38:31;;;;;;;1.83;1.40;;;;;;;7.18;100.00;97084.94;5070398;28;20225;-80
2023/01/05 05:40:58;;;;;;;1.00;0.90;;;;;;;7.19;100.00;97092.00;5085206;28;20201;-80
2023/01/05 05:43:25;;;;;;;1.07;1.00;;;;;;;7.22;100.00;97097.00;5065651;28;20213;-80
2023/01/05 05:45:52;;;;;;;2.33;1.30;;;;;;;7.20;100.00;97094.50;5062395;28;20217;-80
2023/01/05 05:48:19;;;;;;;1.53;1.20;;;;;;;7.20;100.00;97113.28;5070281;28;20206;-80
2023/01/05 05:50:47;;;;;;;1.33;1.10;;;;;;;7.18;100.00;97109.94;5071474;28;20205;-79
2023/01/05 05:53:14;;;;;;;0.97;0.90;;;;;;;7.15;100.00;97112.16;5099878;28;20206;-80
2023/01/05 05:55:41;;;;;;;1.53;1.20;;;;;;;7.12;100.00;97091.91;5067787;28;20190;-80
2023/01/05 05:58:09;;;;;;;2.27;1.70;;;;;;;7.20;100.00;97115.13;5103619;28;20212;-80
2023/01/05 06:00:36;;;;;;;2.73;1.60;;;;;;;7.17;100.00;97126.25;5069835;28;20217;-79
2023/01/05 06:03:03;;;;;;;1.90;1.60;;;;;;;7.17;100.00;97126.25;5071021;28;20205;-80
2023/01/05 06:05:30;;;;;;;4.27;3.00;;;;;;;7.10;100.00;97130.72;5073390;28;20218;-80
2023/01/05 06:07:58;;;;;;;4.07;2.50;;;;;;;7.04;100.00;97123.44;5068476;28;20252;-79
2023/01/05 06:10:26;;;;;;;2.57;2.20;;;;;;;7.00;100.00;97116.75;5071011;28;20255;-79
2023/01/05 06:12:53;;;;;;;2.43;1.70;;;;;;;7.08;100.00;97122.84;5065855;28;20210;-79
2023/01/05 06:15:20;;;;;;;2.23;1.83;;;;;;;7.09;100.00;97129.06;5069486;28;20209;-79
2023/01/05 06:17:47;;;;;;;3.33;1.90;;;;;;;7.00;100.00;97119.44;5073176;28;20229;-79
2023/01/05 06:20:16;;;;;;;2.17;1.70;;;;;;;7.02;100.00;97117.41;5105292;28;20202;-79
2023/01/05 06:22:43;;;;;;;2.80;1.90;;;;;;;7.01;100.00;97131.84;5069103;28;20193;-80
2023/01/05 06:25:11;;;;;;;3.83;2.43;;;;;;;7.02;100.00;97133.53;5068413;28;20221;-79
2023/01/05 06:27:38;;;;;;;3.37;1.87;;;;;;;7.08;100.00;97130.06;5068013;28;20264;-79
2023/01/05 06:30:06;;;;;;;5.27;2.17;;;;;;;7.11;100.00;97137.75;5072244;28;20200;-79
2023/01/05 06:32:33;;;;;;;2.40;1.67;;;;;;;7.07;100.00;97131.94;5107348;28;20197;-79
2023/01/05 06:35:01;;;;;;;4.37;2.20;;;;;;;7.09;100.00;97134.44;5070572;28;20202;-79
2023/01/05 06:37:28;;;;;;;4.87;1.87;;;;;;;7.09;100.00;97146.00;5067740;28;20260;-78
2023/01/05 06:39:55;;;;;;;3.60;1.80;;;;;;;7.13;100.00;97130.34;5099680;28;20201;-78
2023/01/05 06:42:24;;;;;;;2.70;1.90;;;;;;;7.10;100.00;97134.25;5071680;28;20209;-79
2023/01/05 06:44:51;;;;;;;4.03;2.10;;;;;;;7.14;100.00;97137.41;5105697;28;20217;-79
2023/01/05 06:47:18;;;;;;;2.37;1.77;;;;;;;7.14;100.00;97140.09;5071819;28;20208;-79
2023/01/05 06:49:45;;;;;;;3.27;1.70;;;;;;;7.14;100.00;97148.97;5070041;28;20206;-79
2023/01/05 06:52:13;;;;;;;2.23;1.70;;;;;;;7.17;100.00;97145.06;5066094;28;20228;-79
2023/01/05 06:54:40;;;;;;;4.53;1.67;;;;;;;7.12;100.00;97134.91;5056078;28;20233;-79
2023/01/05 06:57:07;;;;;;;2.27;1.70;;;;;;;7.13;100.00;97135.72;5092029;28;20209;-79
2023/01/05 06:59:35;;;;;;;1.87;1.43;;;;;;;7.16;100.00;97146.06;5071569;28;20201;-78
2023/01/05 07:02:02;;;;;;;1.87;1.70;;;;;;;7.21;100.00;97139.13;5070827;28;20238;-79
2023/01/05 07:04:29;;;;;;;1.20;1.10;;;;;;;7.16;100.00;97129.97;5062719;28;20218;-79
2023/01/05 07:06:57;;;;;;;1.20;1.10;;;;;;;7.15;100.00;97126.44;5067740;28;20205;-79
2023/01/05 07:09:24;;;;;;;1.57;1.23;;;;;;;7.18;100.00;97123.38;5074165;28;20259;-78
2023/01/05 07:11:51;;;;;;;2.70;1.43;;;;;;;7.20;100.00;97125.88;5069283;28;20213;-78
2023/01/05 07:14:18;;;;;;;2.57;1.80;;;;;;;7.18;100.00;97127.91;5068897;28;20214;-78
2023/01/05 07:16:47;;;;;;;4.03;3.37;;;;;;;7.25;100.00;97125.31;5065534;28;20206;-79
2023/01/05 07:19:14;;;;;;;4.50;4.10;;;;;;;7.28;100.00;97123.06;5059363;28;20237;-79
2023/01/05 07:21:41;;;;;;;4.30;3.80;;;;;;;7.29;100.00;97135.50;5064942;28;20198;-79
2023/01/05 07:24:08;;;;;;;5.70;4.27;;;;;;;7.21;100.00;97130.25;5063825;28;20236;-79
2023/01/05 07:26:35;;;;;;;8.33;6.00;;;;;;;7.17;100.00;97134.31;5070646;28;20269;-79
2023/01/05 07:29:02;;;;;;;8.40;6.60;;;;;;;7.20;100.00;97134.78;5065473;28;20210;-79
2023/01/05 07:31:29;;;;;;;6.07;5.33;;;;;;;7.22;100.00;97140.78;5065218;28;20292;-79
2023/01/05 07:33:57;;;;;;;5.70;3.33;;;;;;;7.25;100.00;97144.94;5096268;28;20259;-79
2023/01/05 07:36:25;;;;;;;5.33;2.80;;;;;;;7.16;100.00;97138.00;5062994;28;20216;-78
2023/01/05 07:38:52;;;;;;;3.30;2.13;;;;;;;7.19;100.00;97143.03;5100526;28;20223;-79
2023/01/05 07:41:19;;;;;;;5.60;2.40;;;;;;;7.10;100.00;97136.09;5066849;28;20200;-78
2023/01/05 07:43:49;;;;;;;4.73;2.27;;;;;;;7.16;100.00;97146.06;5060959;28;20248;-79
2023/01/05 07:46:16;;;;;;;3.20;2.17;;;;;;;7.15;100.00;97144.41;5063530;28;20222;-79
2023/01/05 07:48:43;;;;;;;4.30;3.47;;;;;;;7.26;100.00;97145.78;5099908;28;20209;-78
2023/01/05 07:51:11;;;;;;;3.63;2.30;;;;;;;7.30;100.00;97158.66;5062239;28;20205;-79
2023/01/05 07:53:38;;;;;;;4.17;2.20;;;;;;;7.31;100.00;97149.56;5083924;28;20198;-78
2023/01/05 07:56:06;;;;;;;2.97;2.13;;;;;;;7.29;100.00;97146.22;5062676;28;20216;-79
2023/01/05 07:58:34;;;;;;;2.30;2.10;;;;;;;7.36;100.00;97147.13;5066447;28;20452;-79
2023/01/05 08:01:05;;;;;;;2.83;2.07;;;;;;;7.48;100.00;97144.78;5066308;28;20212;-79
2023/01/05 08:03:33;;;;;;;1.53;1.43;;;;;;;7.44;100.00;97138.13;5063732;28;20221;-78
2023/01/05 08:06:04;;;;;;;1.30;1.20;;;;;;;7.51;100.00;97139.00;5060097;28;20229;-79
2023/01/05 08:08:35;;;;;;;1.40;1.30;;;;;;;7.53;100.00;97143.19;5101826;28;20197;-78
2023/01/05 08:11:04;;;;;;;3.57;1.90;;;;;;;7.63;100.00;97153.63;5070258;28;20225;-78
2023/01/05 08:16:15;;;;;;;5.23;3.60;;;;;;;7.67;100.00;97162.94;5096959;28;20327;-78
2023/01/05 08:18:42;;;;;;;2.27;1.73;;;;;;;7.73;100.00;97166.75;5061451;28;20229;-78
2023/01/05 08:21:09;;;;;;;2.30;1.97;;;;;;;7.72;100.00;97178.50;5060735;28;20210;-79
2023/01/05 08:23:38;;;;;;;5.20;2.40;;;;;;;7.72;100.00;97171.28;5069511;28;20205;-79
2023/01/05 08:26:10;;;;;;;1.90;1.60;;;;;;;7.74;100.00;97163.03;5065712;28;20229;-79
2023/01/05 08:28:37;;;;;;;4.43;1.77;;;;;;;7.75;100.00;97168.19;5067186;28;20197;-78
2023/01/05 08:31:06;;;;;;;4.37;1.90;;;;;;;7.75;100.00;97167.34;5062167;28;20264;-79
2023/01/05 08:33:34;;;;;;;4.27;1.80;;;;;;;7.81;100.00;97171.97;5063006;28;20257;-79
2023/01/05 08:36:00;;;;;;;3.47;2.10;;;;;;;7.83;100.00;97173.44;5065102;28;20194;-78
2023/01/05 08:38:27;;;;;;;2.83;2.00;;;;;;;7.83;100.00;97168.06;5095050;28;20233;-78
2023/01/05 08:40:59;;;;;;;4.03;2.30;;;;;;;7.82;100.00;97173.66;5056523;28;20210;-79
2023/01/05 08:43:27;;;;;;;3.77;2.33;;;;;;;7.84;100.00;97166.19;5057750;28;20225;-78
2023/01/05 08:45:54;;;;;;;3.70;2.63;;;;;;;7.84;100.00;97155.44;5066917;28;20229;-79
2023/01/05 08:48:21;;;;;;;4.10;2.20;;;;;;;7.89;100.00;97161.09;5066205;28;20209;-79
2023/01/05 08:50:48;;;;;;;3.37;2.47;;;;;;;7.86;100.00;97151.53;5098362;28;20281;-79
2023/01/05 08:53:15;;;;;;;5.20;2.80;;;;;;;7.96;100.00;97156.59;5065455;28;20201;-79
2023/01/05 08:55:42;;;;;;;9.23;5.57;;;;;;;7.96;100.00;97153.91;5065857;28;20193;-79
2023/01/05 08:58:10;;;;;;;8.87;5.27;;;;;;;7.92;100.00;97160.69;5068186;28;20241;-78
2023/01/05 09:00:38;;;;;;;6.77;4.50;;;;;;;7.91;100.00;97164.44;5052501;28;20279;-79
2023/01/05 09:03:05;;;;;;;6.83;4.40;;;;;;;7.90;100.00;97165.44;5067161;28;20194;-79
2023/01/05 09:05:32;;;;;;;7.10;4.40;;;;;;;7.83;100.00;97148.41;5068942;28;20231;-78
2023/01/05 09:07:59;;;;;;;9.67;5.17;;;;;;;7.84;100.00;97145.53;5102201;28;20205;-79
2023/01/05 09:10:26;;;;;;;9.27;5.20;;;;;;;7.94;100.00;97155.94;5067869;28;20240;-79
2023/01/05 09:12:53;;;;;;;9.03;5.23;;;;;;;7.98;100.00;97155.38;5069064;28;20231;-79
2023/01/05 09:15:21;;;;;;;8.17;4.90;;;;;;;7.94;100.00;97142.50;5067295;28;20190;-79
2023/01/05 09:17:48;;;;;;;7.80;4.70;;;;;;;7.99;100.00;97145.47;5103321;28;20312;-79
2023/01/05 09:20:15;;;;;;;5.13;4.30;;;;;;;8.02;100.00;97150.44;5067502;28;20201;-79
2023/01/05 09:22:43;;;;;;;5.63;4.40;;;;;;;8.06;100.00;97158.97;5068594;28;20201;-79
2023/01/05 09:25:10;;;;;;;6.83;4.50;;;;;;;8.13;100.00;97159.84;5067108;28;20263;-79
2023/01/05 09:27:38;;;;;;;6.33;4.37;;;;;;;8.26;100.00;97166.13;5068235;28;20272;-79
2023/01/05 09:30:06;;;;;;;8.17;4.67;;;;;;;8.23;100.00;97158.47;5071605;28;20205;-79
2023/01/05 09:32:37;;;;;;;8.67;5.10;;;;;;;8.29;100.00;97155.00;5064564;28;20206;-78
2023/01/05 09:35:04;;;;;;;9.47;4.67;;;;;;;8.40;100.00;97174.34;5063252;28;20259;-79
2023/01/05 09:37:31;;;;;;;7.30;3.90;;;;;;;8.42;100.00;97186.56;5101904;28;20247;-79
2023/01/05 09:39:58;;;;;;;10.83;6.73;;;;;;;8.29;100.00;97184.59;5101073;28;20205;-79
2023/01/05 09:42:29;;;;;;;10.27;4.50;;;;;;;8.37;100.00;97185.50;5067661;28;20205;-78
2023/01/05 09:45:02;;;;;;;6.37;3.70;;;;;;;8.26;100.00;97176.06;5064905;28;20205;-79
2023/01/05 09:47:34;;;;;;;3.60;3.00;;;;;;;8.28;100.00;97174.84;5102249;28;20303;-79
2023/01/05 09:50:08;;;;;;;5.47;3.70;;;;;;;8.33;100.00;97193.97;5071180;28;20205;-79
2023/01/05 09:52:36;;;;;;;4.67;3.17;;;;;;;8.27;100.00;97188.50;5068813;28;20245;-79
2023/01/05 09:55:04;;;;;;;3.97;2.40;;;;;;;8.33;100.00;97193.97;5066496;28;20202;-79
2023/01/05 09:57:32;;;;;;;6.97;3.27;;;;;;;8.47;100.00;97199.44;5070958;28;20247;-79
2023/01/05 10:00:03;;;;;;;5.13;3.00;;;;;;;8.45;100.00;97196.94;5074808;28;20197;-79
2023/01/05 10:02:44;;;;;;;4.10;2.80;;;;;;;8.46;100.00;97213.94;5068511;28;20197;-79
2023/01/05 10:05:14;;;;;;;10.43;3.50;;;;;;;8.49;100.00;97225.16;5100781;28;20217;-79
2023/01/05 10:07:45;;;;;;;3.90;3.00;;;;;;;8.43;100.00;97211.63;5069574;28;20237;-79
2023/01/05 10:10:24;;;;;;;5.40;3.50;;;;;;;8.54;100.00;97220.00;5072741;28;20236;-79
2023/01/05 10:13:05;;;;;;;4.20;3.37;;;;;;;8.50;100.00;97215.22;5057436;28;20208;-79
2023/01/05 10:15:38;;;;;;;3.27;2.83;;;;;;;8.48;100.00;97217.25;5071498;28;20272;-79
2023/01/05 10:18:14;;;;;;;6.17;3.30;;;;;;;8.46;100.00;97213.94;5072999;28;20233;-79
2023/01/05 10:20:57;;;;;;;7.77;3.80;;;;;;;8.51;100.00;97225.75;5085752;28;20220;-79
2023/01/05 10:23:43;;;;;;;8.73;4.10;;;;;;;8.54;100.00;97222.69;5061794;28;20260;-79
2023/01/05 10:26:15;;;;;;;17.90;7.17;;;;;;;8.60;100.00;97221.91;5070299;28;20227;-80
2023/01/05 10:28:51;;;;;;;5.77;4.20;;;;;;;8.62;100.00;97213.63;5062575;28;20237;-79
2023/01/05 10:31:23;;;;;;;6.23;3.97;;;;;;;8.63;100.00;97210.75;5068223;28;20258;-80
2023/01/05 10:33:52;;;;;;;7.20;5.13;;;;;;;8.56;100.00;97198.28;5058061;28;20201;-79
2023/01/05 10:36:40;;;;;;;4.83;3.53;;;;;;;8.57;100.00;97199.94;5071812;28;20247;-79
2023/01/05 10:39:18;;;;;;;3.73;2.80;;;;;;;8.60;100.00;97207.59;5064490;28;20305;-79
2023/01/05 10:41:58;;;;;;;5.87;2.80;;;;;;;8.65;100.00;97205.16;5071040;28;20209;-79
2023/01/05 10:44:42;;;;;;;4.63;2.70;;;;;;;8.68;100.00;97197.50;5068133;28;20208;-79
2023/01/05 10:47:11;;;;;;;6.60;2.60;;;;;;;8.73;100.00;97205.00;5063969;28;20261;-79
2023/01/05 10:49:40;;;;;;;7.57;3.30;;;;;;;8.75;100.00;97202.97;5064467;28;20201;-79
2023/01/05 10:52:13;;;;;;;4.10;2.80;;;;;;;8.80;100.00;97205.88;5068682;28;20202;-79
2023/01/05 10:54:44;;;;;;;3.17;2.60;;;;;;;8.73;100.00;97192.38;5071626;28;20205;-79
2023/01/05 10:57:31;;;;;;;3.37;2.70;;;;;;;8.84;100.00;97201.78;5105330;28;20228;-79
2023/01/05 11:00:00;;;;;;;4.27;2.83;;;;;;;8.79;100.00;97193.44;5068355;28;20301;-79
2023/01/05 11:02:30;;;;;;;8.63;3.00;;;;;;;8.79;100.00;97206.06;5062674;28;20214;-79
2023/01/05 11:05:02;;;;;;;5.47;3.17;;;;;;;8.74;100.00;97198.59;5094312;28;20198;-79
2023/01/05 11:07:31;;;;;;;4.53;2.80;;;;;;;8.69;100.00;97188.41;5060045;28;20211;-79
2023/01/05 11:09:58;;;;;;;6.33;3.00;;;;;;;8.74;100.00;97193.22;5070142;28;20201;-79
2023/01/05 11:12:26;;;;;;;3.00;2.70;;;;;;;8.81;100.00;97196.78;5103830;28;20237;-79
2023/01/05 11:14:56;;;;;;;3.27;2.90;;;;;;;8.82;100.00;97186.84;5069167;28;20220;-79
2023/01/05 11:17:26;;;;;;;3.20;2.77;;;;;;;8.92;100.00;97206.16;5067840;28;20296;-79
2023/01/05 11:19:57;;;;;;;3.37;3.07;;;;;;;8.93;100.00;97199.75;5071149;28;20280;-79
2023/01/05 11:22:29;;;;;;;4.77;2.97;;;;;;;8.93;100.00;97197.84;5102051;28;20224;-79
2023/01/05 11:25:14;;;;;;;5.67;4.07;;;;;;;8.91;100.00;97191.84;5062953;28;20210;-79
2023/01/05 11:27:41;;;;;;;4.33;3.57;;;;;;;8.83;100.00;97183.94;5061219;28;20261;-79
2023/01/05 11:30:20;;;;;;;5.97;3.37;;;;;;;8.89;100.00;97193.91;5086474;28;20232;-79
2023/01/05 11:32:48;;;;;;;3.50;3.20;;;;;;;8.82;100.00;97182.28;5061522;28;20286;-79
2023/01/05 11:35:21;;;;;;;8.00;4.87;;;;;;;8.77;100.00;97179.34;5084023;28;20276;-79
2023/01/05 11:37:48;;;;;;;6.53;4.83;;;;;;;8.84;100.00;97180.22;5067209;28;20205;-79
2023/01/05 11:40:19;;;;;;;5.17;3.87;;;;;;;8.82;100.00;97171.50;5100212;28;20209;-81
2023/01/05 11:42:46;;;;;;;5.17;3.50;;;;;;;8.88;100.00;97170.69;5063872;28;20221;-80
2023/01/05 11:45:20;;;;;;;6.20;3.63;;;;;;;8.97;100.00;97174.06;5095074;28;20205;-80
2023/01/05 11:47:52;;;;;;;4.90;3.43;;;;;;;8.89;100.00;97163.44;5069281;28;20381;-80
2023/01/05 11:50:23;;;;;;;5.13;3.37;;;;;;;8.92;100.00;97160.38;5102316;28;20209;-80
2023/01/05 11:52:52;;;;;;;5.70;3.17;;;;;;;8.86;100.00;97156.59;5061920;28;20293;-80
2023/01/05 11:55:30;;;;;;;4.30;3.23;;;;;;;8.93;100.00;97162.03;5065666;28;20234;-80
2023/01/05 11:58:20;;;;;;;4.87;3.47;;;;;;;8.88;100.00;97162.63;5063352;28;20327;-79
2023/01/05 12:01:20;;;;;;;4.53;3.73;;;;;;;8.82;100.00;97152.66;5068098;28;20197;-80
2023/01/05 12:04:12;;;;;;;4.20;2.67;;;;;;;8.93;100.00;97151.25;5063169;28;20202;-79
2023/01/05 12:07:04;;;;;;;3.80;2.70;;;;;;;9.02;100.00;97160.81;5050691;28;20254;-79
2023/01/05 12:09:34;;;;;;;7.87;4.63;;;;;;;9.06;100.00;97154.00;5068160;28;20197;-79
2023/01/05 12:12:26;;;;;;;7.40;4.10;;;;;;;9.07;100.00;97143.03;5102926;28;20221;-79
2023/01/05 12:15:12;;;;;;;4.93;3.30;;;;;;;9.19;100.00;97150.50;5059464;28;20648;-79
2023/01/05 12:17:49;;;;;;;5.87;3.70;;;;;;;9.15;100.00;97149.28;5066871;28;20260;-79
2023/01/05 12:21:00;;;;;;;5.07;3.43;;;;;;;9.21;100.00;97146.59;5068775;28;20208;-79